Terminal Aerodrome Forecast
Issued by NWS Cleveland, OH

Home | Current Version | Previous Version | Graphics & Text | Print | Product List | Glossary On
Versions: 1 2 3 4 5 6 7 8 9 10 11 12 13 14 15 16 17 18 19
000
FTUS41 KCLE 141100
TAFYNG
TAF
KYNG 141132Z 1412/1512 19014G20KT P6SM SCT060 OVC150 WS014/21045KT
     FM141500 21020G32KT P6SM -SHRA SCT050 OVC120
      TEMPO 1416/1420 5SM -SHRA OVC050
     FM142000 21020G32KT P6SM -SHRA SCT015 OVC035
      TEMPO 1420/1424 4SM -SHRA BR OVC015
     FM150000 20012G18KT 6SM -SHRA VCTS SCT008CB OVC025
      TEMPO 1500/1503 4SM -SHRA BR OVC008
     FM150300 30012G20KT 5SM -DZ BR OVC003
     FM150600 32014G22KT P6SM OVC006=

USA.gov is the U.S. government's official web portal to all federal, state and local government web resources and services.